2000 INNOCENTE (2000103S10095)


On this page: IBTrACS data - Map and Plots - Positions - Intensities - Original source data

Summary

Start Apr 11
End Apr 24
Basin SI
LMI 45 kt
Sources jtwc_sh
reunion
neumann
In WMO? Yes
Previous storm 2000 PAUL (SI)
Previous in basin 2000 PAUL (SI)
Concurrent storms 2000 1319992000 (SI)
2000 PAUL (SI)
2000 INNOCENTE (SI)
2000 NEIL (SP)
2000 ROSITA (SI)
Next in basin 2000 ROSITA (SI)
Next storm 2000 NEIL (SP)

top of page IBTrACS Data: File Access

top of page HURSAT Data: File Access

Image of storm

top of page Plots:

Map of storm track will not appear if FTP is down
Time series of cyclone Maximum Sustained Wind will not appear if FTP is down
Time series of cyclone Minimum Central Pressure will not appear if FTP is down

top of page Track Data:Position

jtwc_sh reunion neumann
Date Lat Lon Lat Lon Lat Lon
2000-04-11 12:00:00 -10.0 95.3
2000-04-11 18:00:00 -10.1 94.8
2000-04-12 00:00:00 -10.1 94.2
2000-04-12 06:00:00 -10.4 92.7
2000-04-12 12:00:00 -10.8 90.7
2000-04-12 18:00:00 -11.1 89.5
2000-04-13 00:00:00 -11.3 88.2
2000-04-13 06:00:00 -11.7 86.8
2000-04-13 12:00:00 -11.5 85.7
2000-04-13 18:00:00 -11.3 85.1
2000-04-14 00:00:00 -11.1 84.9
2000-04-14 06:00:00 -11.0 84.7
2000-04-14 12:00:00 -11.3 84.4
2000-04-14 18:00:00 -12.2 84.1
2000-04-15 00:00:00 -13.0 83.6
2000-04-15 06:00:00 -14.4 81.9 -13.8 82.5 -14.4 81.9
2000-04-15 12:00:00 -14.7 80.9 -14.5 81.4 -14.7 80.9
2000-04-15 18:00:00 -15.0 80.1 -14.9 80.6 -15.0 80.1
2000-04-16 00:00:00 -15.3 79.2 -15.2 79.7 -15.3 79.2
2000-04-16 06:00:00 -15.5 78.7 -15.6 78.5 -15.5 78.7
2000-04-16 12:00:00 -15.6 78.2 -15.7 78.0 -15.6 78.2
2000-04-16 18:00:00 -15.7 77.7 -15.9 77.4 -15.7 77.7
2000-04-17 00:00:00 -15.9 77.1 -16.1 76.8 -15.9 77.1
2000-04-17 06:00:00 -16.2 76.5 -16.2 76.3 -16.2 76.5
2000-04-17 12:00:00 -16.5 75.8 -16.4 75.8 -16.5 75.8
jtwc_sh reunion neumann
2000-04-17 18:00:00 -16.8 75.0 -16.7 75.1 -16.8 75.0
2000-04-18 00:00:00 -17.0 74.3 -17.0 74.4 -17.0 74.3
2000-04-18 06:00:00 -17.1 73.5 -17.3 73.6 -17.1 73.5
2000-04-18 12:00:00 -17.3 72.7 -17.5 73.0 -17.3 72.7
2000-04-18 18:00:00 -17.5 71.9 -17.6 72.0 -17.5 71.9
2000-04-19 00:00:00 -17.8 71.0 -17.7 70.7 -17.8 71.0
2000-04-19 06:00:00 -18.0 70.3 -17.8 70.4 -18.0 70.3
2000-04-19 12:00:00 -18.3 69.5 -18.1 69.9 -18.3 69.5
2000-04-19 18:00:00 -18.4 68.8 -18.4 69.0 -18.4 68.8
2000-04-20 00:00:00 -18.4 68.1 -18.4 68.0 -18.4 68.1
2000-04-20 06:00:00 -18.2 67.4 -18.2 67.3 -18.2 67.4
2000-04-20 12:00:00 -18.0 66.7 -17.9 66.6 -18.0 66.7
2000-04-20 18:00:00 -17.8 66.0 -17.6 65.7 -17.8 66.0
2000-04-21 00:00:00 -17.6 65.3 -17.3 65.2 -17.6 65.3
2000-04-21 06:00:00 -17.1 64.9
2000-04-21 12:00:00 -17.0 64.7
2000-04-21 18:00:00 -16.7 63.9
2000-04-22 00:00:00 -16.6 63.5
2000-04-22 06:00:00 -16.1 62.7
2000-04-22 12:00:00 -15.5 62.0
2000-04-22 18:00:00 -15.0 61.2
2000-04-23 00:00:00 -14.4 60.1
2000-04-23 06:00:00 -14.2 58.8
2000-04-23 12:00:00 -14.5 58.4
jtwc_sh reunion neumann
2000-04-23 18:00:00 -14.7 57.2
2000-04-24 00:00:00 -14.8 55.9
2000-04-24 06:00:00 -15.1 54.9
2000-04-24 12:00:00 -16.3 53.7

top of pageTrack Data:Intensity

jtwc_sh reunion neumann
Date Wind Pres Wind Pres Wind Pres
2000-04-11 12:00:00 20. 1002.
2000-04-11 18:00:00 20. 1002.
2000-04-12 00:00:00 20. 1002.
2000-04-12 06:00:00 20. 1002.
2000-04-12 12:00:00 20. 1002.
2000-04-12 18:00:00 25. 1000.
2000-04-13 00:00:00 25. 1000.
2000-04-13 06:00:00 30. 998.
2000-04-13 12:00:00 30. 998.
2000-04-13 18:00:00 30. 998.
2000-04-14 00:00:00 30. 998.
2000-04-14 06:00:00 25. 1000.
2000-04-14 12:00:00 25. 1000.
2000-04-14 18:00:00 25. 1000.
2000-04-15 00:00:00 25. 1000.
2000-04-15 06:00:00 25. 25. 1000. 25.
2000-04-15 12:00:00 25. 30. 998. 25.
2000-04-15 18:00:00 35. 30. 998. 35.
2000-04-16 00:00:00 35. 30. 998. 35.
2000-04-16 06:00:00 35. 30. 998. 35.
2000-04-16 12:00:00 35. 30. 998. 35.
2000-04-16 18:00:00 35. 30. 998. 35.
2000-04-17 00:00:00 35. 30. 998. 35.
2000-04-17 06:00:00 35. 35. 995. 35.
2000-04-17 12:00:00 45. 37. 993. 45.
jtwc_sh reunion neumann
2000-04-17 18:00:00 45. 37. 993. 45.
2000-04-18 00:00:00 45. 37. 993. 45.
2000-04-18 06:00:00 45. 35. 995. 45.
2000-04-18 12:00:00 40. 35. 995. 40.
2000-04-18 18:00:00 35. 30. 997. 35.
2000-04-19 00:00:00 35. 30. 997. 35.
2000-04-19 06:00:00 30. 30. 998. 30.
2000-04-19 12:00:00 25. 30. 998. 25.
2000-04-19 18:00:00 25. 25. 1000. 25.
2000-04-20 00:00:00 25. 25. 1000. 25.
2000-04-20 06:00:00 25. 25. 1000. 25.
2000-04-20 12:00:00 25. 25. 1000. 25.
2000-04-20 18:00:00 25. 20. 1002. 25.
2000-04-21 00:00:00 25. 20. 1003. 25.
2000-04-21 06:00:00 20. 1004.
2000-04-21 12:00:00 20. 1004.
2000-04-21 18:00:00 20. 1005.
2000-04-22 00:00:00 20. 1005.
2000-04-22 06:00:00 20. 1006.
2000-04-22 12:00:00 20. 1006.
2000-04-22 18:00:00 20. 1007.
2000-04-23 00:00:00 20. 1007.
2000-04-23 06:00:00 20. 1008.
2000-04-23 12:00:00 20. 1008.
jtwc_sh reunion neumann
2000-04-23 18:00:00 15. 1010.
2000-04-24 00:00:00 15. 1010.
2000-04-24 06:00:00 15. 1011.
2000-04-24 12:00:00 20. 1011.

top of page Links to source data

Source Source file Format
jtwc_sh bsh262000.txt ATCF
reunion WMO-Best-Tracks.txt:Line=19138:innocente WMO (old format)
neumann tracks.sh:Storm=1202:INNOCENTE:26S:BSH262000 HURDAT